sensor_id;sensor_type;location;lat;lon;timestamp;P1;durP1;ratioP1;P2;durP2;ratioP2
75059;SDS011;63640;59.264;18.116;2023-06-22T00:01:01;9.70;;;7.22;;
75059;SDS011;63640;59.264;18.116;2023-06-22T00:03:27;11.63;;;7.88;;
75059;SDS011;63640;59.264;18.116;2023-06-22T00:05:53;10.70;;;7.32;;
75059;SDS011;63640;59.264;18.116;2023-06-22T00:08:18;12.95;;;7.78;;
75059;SDS011;63640;59.264;18.116;2023-06-22T00:10:44;12.55;;;7.90;;
75059;SDS011;63640;59.264;18.116;2023-06-22T00:13:11;10.98;;;7.03;;
75059;SDS011;63640;59.264;18.116;2023-06-22T00:15:37;10.43;;;7.35;;
75059;SDS011;63640;59.264;18.116;2023-06-22T00:18:04;10.80;;;7.32;;
75059;SDS011;63640;59.264;18.116;2023-06-22T00:20:31;11.77;;;7.00;;
75059;SDS011;63640;59.264;18.116;2023-06-22T00:22:57;11.52;;;7.80;;
75059;SDS011;63640;59.264;18.116;2023-06-22T00:25:24;10.18;;;7.47;;
75059;SDS011;63640;59.264;18.116;2023-06-22T00:27:49;10.68;;;7.13;;
75059;SDS011;63640;59.264;18.116;2023-06-22T00:30:15;10.48;;;7.25;;
75059;SDS011;63640;59.264;18.116;2023-06-22T00:32:42;10.82;;;7.15;;
75059;SDS011;63640;59.264;18.116;2023-06-22T00:35:08;10.25;;;7.38;;
75059;SDS011;63640;59.264;18.116;2023-06-22T00:37:35;10.52;;;7.80;;
75059;SDS011;63640;59.264;18.116;2023-06-22T00:40:01;12.13;;;8.05;;
75059;SDS011;63640;59.264;18.116;2023-06-22T00:42:27;11.43;;;7.20;;
75059;SDS011;63640;59.264;18.116;2023-06-22T00:44:52;10.48;;;7.55;;
75059;SDS011;63640;59.264;18.116;2023-06-22T00:47:18;11.25;;;7.70;;
75059;SDS011;63640;59.264;18.116;2023-06-22T00:49:44;10.18;;;7.43;;
75059;SDS011;63640;59.264;18.116;2023-06-22T00:52:11;13.60;;;8.07;;
75059;SDS011;63640;59.264;18.116;2023-06-22T00:54:40;11.43;;;7.43;;
75059;SDS011;63640;59.264;18.116;2023-06-22T00:57:11;11.43;;;7.68;;
75059;SDS011;63640;59.264;18.116;2023-06-22T00:59:37;11.07;;;8.10;;
75059;SDS011;63640;59.264;18.116;2023-06-22T01:02:04;10.07;;;6.88;;
75059;SDS011;63640;59.264;18.116;2023-06-22T01:04:37;11.90;;;9.48;;
75059;SDS011;63640;59.264;18.116;2023-06-22T01:07:16;11.07;;;7.70;;
75059;SDS011;63640;59.264;18.116;2023-06-22T01:10:07;11.45;;;7.50;;
75059;SDS011;63640;59.264;18.116;2023-06-22T01:12:42;12.85;;;7.88;;
75059;SDS011;63640;59.264;18.116;2023-06-22T01:15:11;9.93;;;7.45;;
75059;SDS011;63640;59.264;18.116;2023-06-22T01:17:42;11.65;;;7.22;;
75059;SDS011;63640;59.264;18.116;2023-06-22T01:20:08;10.57;;;8.13;;
75059;SDS011;63640;59.264;18.116;2023-06-22T01:22:39;11.25;;;7.38;;
75059;SDS011;63640;59.264;18.116;2023-06-22T01:25:31;11.73;;;7.90;;
75059;SDS011;63640;59.264;18.116;2023-06-22T01:31:00;14.50;;;8.52;;
75059;SDS011;63640;59.264;18.116;2023-06-22T01:33:33;10.43;;;8.18;;
75059;SDS011;63640;59.264;18.116;2023-06-22T01:36:00;10.40;;;7.72;;
75059;SDS011;63640;59.264;18.116;2023-06-22T01:38:27;11.65;;;8.55;;
75059;SDS011;63640;59.264;18.116;2023-06-22T01:40:53;11.70;;;8.55;;
75059;SDS011;63640;59.264;18.116;2023-06-22T01:43:20;11.45;;;8.25;;
75059;SDS011;63640;59.264;18.116;2023-06-22T01:45:48;13.10;;;8.85;;
75059;SDS011;63640;59.264;18.116;2023-06-22T01:48:14;12.38;;;9.32;;
75059;SDS011;63640;59.264;18.116;2023-06-22T01:50:40;11.25;;;8.48;;
75059;SDS011;63640;59.264;18.116;2023-06-22T01:53:05;10.77;;;8.60;;
75059;SDS011;63640;59.264;18.116;2023-06-22T01:55:32;14.88;;;9.73;;
75059;SDS011;63640;59.264;18.116;2023-06-22T01:57:57;10.32;;;8.23;;
75059;SDS011;63640;59.264;18.116;2023-06-22T02:00:23;13.30;;;9.05;;
75059;SDS011;63640;59.264;18.116;2023-06-22T02:02:52;12.48;;;8.82;;
75059;SDS011;63640;59.264;18.116;2023-06-22T02:05:21;12.15;;;8.93;;
75059;SDS011;63640;59.264;18.116;2023-06-22T02:07:51;13.05;;;9.18;;
75059;SDS011;63640;59.264;18.116;2023-06-22T02:10:24;12.00;;;9.75;;
75059;SDS011;63640;59.264;18.116;2023-06-22T02:12:50;12.95;;;9.07;;
75059;SDS011;63640;59.264;18.116;2023-06-22T02:15:16;12.25;;;9.80;;
75059;SDS011;63640;59.264;18.116;2023-06-22T02:17:42;12.07;;;9.50;;
75059;SDS011;63640;59.264;18.116;2023-06-22T02:20:13;14.32;;;9.55;;
75059;SDS011;63640;59.264;18.116;2023-06-22T02:22:39;12.95;;;9.80;;
75059;SDS011;63640;59.264;18.116;2023-06-22T02:25:05;11.25;;;9.00;;
75059;SDS011;63640;59.264;18.116;2023-06-22T02:27:30;15.70;;;9.55;;
75059;SDS011;63640;59.264;18.116;2023-06-22T02:29:56;12.25;;;9.73;;
75059;SDS011;63640;59.264;18.116;2023-06-22T02:32:22;15.02;;;10.00;;
75059;SDS011;63640;59.264;18.116;2023-06-22T02:34:47;14.65;;;9.95;;
75059;SDS011;63640;59.264;18.116;2023-06-22T02:37:13;14.13;;;8.68;;
75059;SDS011;63640;59.264;18.116;2023-06-22T02:39:42;12.80;;;9.18;;
75059;SDS011;63640;59.264;18.116;2023-06-22T02:42:07;12.18;;;8.55;;
75059;SDS011;63640;59.264;18.116;2023-06-22T02:44:35;13.50;;;9.82;;
75059;SDS011;63640;59.264;18.116;2023-06-22T02:47:01;12.48;;;8.45;;
75059;SDS011;63640;59.264;18.116;2023-06-22T02:49:27;12.48;;;9.02;;
75059;SDS011;63640;59.264;18.116;2023-06-22T02:51:53;11.73;;;8.52;;
75059;SDS011;63640;59.264;18.116;2023-06-22T02:54:18;13.63;;;8.68;;
75059;SDS011;63640;59.264;18.116;2023-06-22T02:56:44;12.55;;;9.02;;
75059;SDS011;63640;59.264;18.116;2023-06-22T02:59:10;10.43;;;7.97;;
75059;SDS011;63640;59.264;18.116;2023-06-22T03:01:36;13.90;;;8.13;;
75059;SDS011;63640;59.264;18.116;2023-06-22T03:04:05;10.75;;;8.05;;
75059;SDS011;63640;59.264;18.116;2023-06-22T03:06:32;11.32;;;8.23;;
75059;SDS011;63640;59.264;18.116;2023-06-22T03:09:01;10.63;;;7.85;;
75059;SDS011;63640;59.264;18.116;2023-06-22T03:11:29;10.32;;;7.90;;
75059;SDS011;63640;59.264;18.116;2023-06-22T03:13:55;11.40;;;7.88;;
75059;SDS011;63640;59.264;18.116;2023-06-22T03:16:21;11.45;;;8.85;;
75059;SDS011;63640;59.264;18.116;2023-06-22T03:18:46;10.52;;;8.40;;
75059;SDS011;63640;59.264;18.116;2023-06-22T03:21:12;13.18;;;8.90;;
75059;SDS011;63640;59.264;18.116;2023-06-22T03:23:37;11.25;;;8.07;;
75059;SDS011;63640;59.264;18.116;2023-06-22T03:26:03;11.05;;;8.40;;
75059;SDS011;63640;59.264;18.116;2023-06-22T03:28:29;12.30;;;9.40;;
75059;SDS011;63640;59.264;18.116;2023-06-22T03:30:57;12.40;;;8.10;;
75059;SDS011;63640;59.264;18.116;2023-06-22T03:33:23;11.20;;;8.48;;
75059;SDS011;63640;59.264;18.116;2023-06-22T03:35:48;35.05;;;19.63;;
75059;SDS011;63640;59.264;18.116;2023-06-22T03:38:15;11.82;;;8.85;;
75059;SDS011;63640;59.264;18.116;2023-06-22T03:40:41;10.48;;;7.70;;
75059;SDS011;63640;59.264;18.116;2023-06-22T03:43:06;13.20;;;8.35;;
75059;SDS011;63640;59.264;18.116;2023-06-22T03:45:32;13.77;;;9.18;;
75059;SDS011;63640;59.264;18.116;2023-06-22T03:47:57;11.30;;;8.50;;
75059;SDS011;63640;59.264;18.116;2023-06-22T03:50:23;12.45;;;9.00;;
75059;SDS011;63640;59.264;18.116;2023-06-22T03:52:48;11.07;;;8.57;;
75059;SDS011;63640;59.264;18.116;2023-06-22T03:55:14;12.05;;;8.95;;
75059;SDS011;63640;59.264;18.116;2023-06-22T03:57:39;11.45;;;8.93;;
75059;SDS011;63640;59.264;18.116;2023-06-22T04:00:05;12.52;;;8.90;;
75059;SDS011;63640;59.264;18.116;2023-06-22T04:02:31;11.20;;;8.57;;
75059;SDS011;63640;59.264;18.116;2023-06-22T04:04:56;12.98;;;8.85;;
75059;SDS011;63640;59.264;18.116;2023-06-22T04:07:22;12.95;;;8.23;;
75059;SDS011;63640;59.264;18.116;2023-06-22T04:09:47;12.40;;;8.73;;
75059;SDS011;63640;59.264;18.116;2023-06-22T04:12:13;11.85;;;8.43;;
75059;SDS011;63640;59.264;18.116;2023-06-22T04:14:39;11.27;;;8.23;;
75059;SDS011;63640;59.264;18.116;2023-06-22T04:17:04;10.65;;;7.78;;
75059;SDS011;63640;59.264;18.116;2023-06-22T04:19:30;10.77;;;8.25;;
75059;SDS011;63640;59.264;18.116;2023-06-22T04:21:55;12.40;;;8.40;;
75059;SDS011;63640;59.264;18.116;2023-06-22T04:24:21;12.73;;;8.18;;
75059;SDS011;63640;59.264;18.116;2023-06-22T04:26:47;15.52;;;8.52;;
75059;SDS011;63640;59.264;18.116;2023-06-22T04:29:12;11.77;;;8.48;;
75059;SDS011;63640;59.264;18.116;2023-06-22T04:31:38;10.80;;;7.97;;
75059;SDS011;63640;59.264;18.116;2023-06-22T04:34:04;10.70;;;7.70;;
75059;SDS011;63640;59.264;18.116;2023-06-22T04:36:33;11.00;;;7.78;;
75059;SDS011;63640;59.264;18.116;2023-06-22T04:39:03;10.15;;;7.07;;
75059;SDS011;63640;59.264;18.116;2023-06-22T04:41:30;10.85;;;7.13;;
75059;SDS011;63640;59.264;18.116;2023-06-22T04:44:07;9.52;;;6.97;;
75059;SDS011;63640;59.264;18.116;2023-06-22T04:46:51;10.20;;;7.05;;
75059;SDS011;63640;59.264;18.116;2023-06-22T04:49:25;9.75;;;6.50;;
75059;SDS011;63640;59.264;18.116;2023-06-22T04:51:57;13.73;;;7.00;;
75059;SDS011;63640;59.264;18.116;2023-06-22T04:54:26;8.95;;;6.10;;
75059;SDS011;63640;59.264;18.116;2023-06-22T04:56:52;9.57;;;6.72;;
75059;SDS011;63640;59.264;18.116;2023-06-22T04:59:24;11.05;;;6.82;;
75059;SDS011;63640;59.264;18.116;2023-06-22T05:01:56;9.15;;;6.32;;
75059;SDS011;63640;59.264;18.116;2023-06-22T05:04:25;9.85;;;6.55;;
75059;SDS011;63640;59.264;18.116;2023-06-22T05:06:53;11.23;;;6.10;;
75059;SDS011;63640;59.264;18.116;2023-06-22T05:09:19;12.10;;;6.40;;
75059;SDS011;63640;59.264;18.116;2023-06-22T05:11:45;9.30;;;6.25;;
75059;SDS011;63640;59.264;18.116;2023-06-22T05:14:11;10.60;;;6.70;;
75059;SDS011;63640;59.264;18.116;2023-06-22T05:16:37;10.20;;;6.57;;
75059;SDS011;63640;59.264;18.116;2023-06-22T05:19:03;9.75;;;6.35;;
75059;SDS011;63640;59.264;18.116;2023-06-22T05:21:29;8.73;;;6.30;;
75059;SDS011;63640;59.264;18.116;2023-06-22T05:23:55;9.93;;;6.43;;
75059;SDS011;63640;59.264;18.116;2023-06-22T05:26:24;9.65;;;6.85;;
75059;SDS011;63640;59.264;18.116;2023-06-22T05:28:50;8.95;;;6.72;;
75059;SDS011;63640;59.264;18.116;2023-06-22T05:31:16;9.45;;;6.18;;
75059;SDS011;63640;59.264;18.116;2023-06-22T05:33:43;9.82;;;6.20;;
75059;SDS011;63640;59.264;18.116;2023-06-22T05:36:09;10.43;;;6.53;;
75059;SDS011;63640;59.264;18.116;2023-06-22T05:38:35;8.15;;;5.72;;
75059;SDS011;63640;59.264;18.116;2023-06-22T05:41:01;9.07;;;6.10;;
75059;SDS011;63640;59.264;18.116;2023-06-22T05:43:27;8.55;;;5.85;;
75059;SDS011;63640;59.264;18.116;2023-06-22T05:45:52;10.10;;;6.60;;
75059;SDS011;63640;59.264;18.116;2023-06-22T05:48:18;10.82;;;6.35;;
75059;SDS011;63640;59.264;18.116;2023-06-22T05:50:43;10.73;;;6.82;;
75059;SDS011;63640;59.264;18.116;2023-06-22T05:53:09;17.73;;;8.05;;
75059;SDS011;63640;59.264;18.116;2023-06-22T05:55:34;9.48;;;6.45;;
75059;SDS011;63640;59.264;18.116;2023-06-22T05:58:00;9.60;;;6.47;;
75059;SDS011;63640;59.264;18.116;2023-06-22T06:00:25;9.40;;;6.15;;
75059;SDS011;63640;59.264;18.116;2023-06-22T06:02:51;11.68;;;7.40;;
75059;SDS011;63640;59.264;18.116;2023-06-22T06:05:16;9.52;;;5.82;;
75059;SDS011;63640;59.264;18.116;2023-06-22T06:07:44;9.80;;;6.53;;
75059;SDS011;63640;59.264;18.116;2023-06-22T06:10:10;11.15;;;7.15;;
75059;SDS011;63640;59.264;18.116;2023-06-22T06:12:36;9.68;;;6.32;;
75059;SDS011;63640;59.264;18.116;2023-06-22T06:15:01;10.65;;;6.63;;
75059;SDS011;63640;59.264;18.116;2023-06-22T06:17:28;17.15;;;6.63;;
75059;SDS011;63640;59.264;18.116;2023-06-22T06:19:53;10.07;;;6.32;;
75059;SDS011;63640;59.264;18.116;2023-06-22T06:22:19;9.38;;;6.00;;
75059;SDS011;63640;59.264;18.116;2023-06-22T06:24:46;8.23;;;5.32;;
75059;SDS011;63640;59.264;18.116;2023-06-22T06:27:12;8.00;;;5.20;;
75059;SDS011;63640;59.264;18.116;2023-06-22T06:29:38;8.85;;;4.97;;
75059;SDS011;63640;59.264;18.116;2023-06-22T06:32:04;9.15;;;5.20;;
75059;SDS011;63640;59.264;18.116;2023-06-22T06:34:29;7.28;;;4.50;;
75059;SDS011;63640;59.264;18.116;2023-06-22T06:36:55;8.40;;;4.95;;
75059;SDS011;63640;59.264;18.116;2023-06-22T06:39:20;7.28;;;4.40;;
75059;SDS011;63640;59.264;18.116;2023-06-22T06:41:46;8.65;;;4.57;;
75059;SDS011;63640;59.264;18.116;2023-06-22T06:44:11;8.38;;;4.43;;
75059;SDS011;63640;59.264;18.116;2023-06-22T06:46:37;8.32;;;4.28;;
75059;SDS011;63640;59.264;18.116;2023-06-22T06:49:03;9.88;;;4.60;;
75059;SDS011;63640;59.264;18.116;2023-06-22T06:51:28;8.32;;;4.88;;
75059;SDS011;63640;59.264;18.116;2023-06-22T06:53:55;7.40;;;3.95;;
75059;SDS011;63640;59.264;18.116;2023-06-22T06:56:21;7.25;;;4.43;;
75059;SDS011;63640;59.264;18.116;2023-06-22T06:58:46;8.48;;;4.68;;
75059;SDS011;63640;59.264;18.116;2023-06-22T07:01:12;8.52;;;4.40;;
75059;SDS011;63640;59.264;18.116;2023-06-22T07:03:38;11.32;;;4.53;;
75059;SDS011;63640;59.264;18.116;2023-06-22T07:06:03;8.05;;;4.70;;
75059;SDS011;63640;59.264;18.116;2023-06-22T07:08:29;7.13;;;3.72;;
75059;SDS011;63640;59.264;18.116;2023-06-22T07:10:54;10.93;;;4.38;;
75059;SDS011;63640;59.264;18.116;2023-06-22T07:13:20;7.78;;;3.80;;
75059;SDS011;63640;59.264;18.116;2023-06-22T07:15:46;7.35;;;4.15;;
75059;SDS011;63640;59.264;18.116;2023-06-22T07:18:11;9.68;;;3.80;;
75059;SDS011;63640;59.264;18.116;2023-06-22T07:20:37;8.77;;;3.80;;
75059;SDS011;63640;59.264;18.116;2023-06-22T07:23:04;8.45;;;4.35;;
75059;SDS011;63640;59.264;18.116;2023-06-22T07:25:30;7.68;;;4.22;;
75059;SDS011;63640;59.264;18.116;2023-06-22T07:27:59;7.45;;;4.40;;
75059;SDS011;63640;59.264;18.116;2023-06-22T07:30:27;9.18;;;4.28;;
75059;SDS011;63640;59.264;18.116;2023-06-22T07:32:53;8.95;;;3.80;;
75059;SDS011;63640;59.264;18.116;2023-06-22T07:35:19;7.63;;;4.40;;
75059;SDS011;63640;59.264;18.116;2023-06-22T07:37:44;7.32;;;4.32;;
75059;SDS011;63640;59.264;18.116;2023-06-22T07:40:10;9.10;;;4.22;;
75059;SDS011;63640;59.264;18.116;2023-06-22T07:42:36;7.38;;;4.10;;
75059;SDS011;63640;59.264;18.116;2023-06-22T07:45:02;8.95;;;3.78;;
75059;SDS011;63640;59.264;18.116;2023-06-22T07:47:28;9.38;;;4.35;;
75059;SDS011;63640;59.264;18.116;2023-06-22T07:49:58;9.52;;;4.55;;
75059;SDS011;63640;59.264;18.116;2023-06-22T07:52:26;8.80;;;3.90;;
75059;SDS011;63640;59.264;18.116;2023-06-22T07:54:52;8.43;;;3.97;;
75059;SDS011;63640;59.264;18.116;2023-06-22T07:57:18;6.75;;;3.97;;
75059;SDS011;63640;59.264;18.116;2023-06-22T07:59:44;9.00;;;4.38;;
75059;SDS011;63640;59.264;18.116;2023-06-22T08:02:10;6.97;;;3.92;;
75059;SDS011;63640;59.264;18.116;2023-06-22T08:04:35;7.47;;;3.15;;
75059;SDS011;63640;59.264;18.116;2023-06-22T08:07:01;6.88;;;4.00;;
75059;SDS011;63640;59.264;18.116;2023-06-22T08:09:30;8.02;;;3.35;;
75059;SDS011;63640;59.264;18.116;2023-06-22T08:11:57;10.27;;;4.35;;
75059;SDS011;63640;59.264;18.116;2023-06-22T08:14:23;7.97;;;4.28;;
75059;SDS011;63640;59.264;18.116;2023-06-22T08:16:50;6.07;;;3.42;;
75059;SDS011;63640;59.264;18.116;2023-06-22T08:19:15;8.82;;;4.22;;
75059;SDS011;63640;59.264;18.116;2023-06-22T08:21:41;10.18;;;3.78;;
75059;SDS011;63640;59.264;18.116;2023-06-22T08:24:07;8.43;;;3.88;;
75059;SDS011;63640;59.264;18.116;2023-06-22T08:26:33;7.60;;;3.95;;
75059;SDS011;63640;59.264;18.116;2023-06-22T08:29:04;7.88;;;3.45;;
75059;SDS011;63640;59.264;18.116;2023-06-22T08:31:30;10.15;;;3.65;;
75059;SDS011;63640;59.264;18.116;2023-06-22T08:33:58;7.90;;;3.65;;
75059;SDS011;63640;59.264;18.116;2023-06-22T08:36:24;11.40;;;3.38;;
75059;SDS011;63640;59.264;18.116;2023-06-22T08:38:50;8.00;;;3.88;;
75059;SDS011;63640;59.264;18.116;2023-06-22T08:41:16;6.97;;;3.63;;
75059;SDS011;63640;59.264;18.116;2023-06-22T08:43:43;7.57;;;3.90;;
75059;SDS011;63640;59.264;18.116;2023-06-22T08:46:09;7.38;;;3.67;;
75059;SDS011;63640;59.264;18.116;2023-06-22T08:48:35;6.60;;;3.72;;
75059;SDS011;63640;59.264;18.116;2023-06-22T08:51:01;7.43;;;4.20;;
75059;SDS011;63640;59.264;18.116;2023-06-22T08:53:28;9.13;;;3.88;;
75059;SDS011;63640;59.264;18.116;2023-06-22T08:55:54;11.73;;;4.20;;
75059;SDS011;63640;59.264;18.116;2023-06-22T08:58:19;6.35;;;3.25;;
75059;SDS011;63640;59.264;18.116;2023-06-22T09:00:46;8.20;;;3.53;;
75059;SDS011;63640;59.264;18.116;2023-06-22T09:03:12;8.82;;;3.55;;
75059;SDS011;63640;59.264;18.116;2023-06-22T09:05:37;6.18;;;3.47;;
75059;SDS011;63640;59.264;18.116;2023-06-22T09:08:03;8.68;;;4.10;;
75059;SDS011;63640;59.264;18.116;2023-06-22T09:10:29;7.47;;;3.50;;
75059;SDS011;63640;59.264;18.116;2023-06-22T09:12:54;7.50;;;3.80;;
75059;SDS011;63640;59.264;18.116;2023-06-22T09:15:20;6.53;;;3.10;;
75059;SDS011;63640;59.264;18.116;2023-06-22T09:17:45;6.22;;;2.85;;
75059;SDS011;63640;59.264;18.116;2023-06-22T09:20:11;7.15;;;3.17;;
75059;SDS011;63640;59.264;18.116;2023-06-22T09:22:37;7.78;;;3.60;;
75059;SDS011;63640;59.264;18.116;2023-06-22T09:25:03;12.20;;;3.88;;
75059;SDS011;63640;59.264;18.116;2023-06-22T09:27:29;7.82;;;3.35;;
75059;SDS011;63640;59.264;18.116;2023-06-22T09:29:55;9.32;;;3.25;;
75059;SDS011;63640;59.264;18.116;2023-06-22T09:32:23;7.15;;;3.17;;
75059;SDS011;63640;59.264;18.116;2023-06-22T09:34:49;8.27;;;3.22;;
75059;SDS011;63640;59.264;18.116;2023-06-22T09:37:15;6.10;;;3.10;;
75059;SDS011;63640;59.264;18.116;2023-06-22T09:39:40;6.82;;;3.33;;
75059;SDS011;63640;59.264;18.116;2023-06-22T09:42:06;7.22;;;3.25;;
75059;SDS011;63640;59.264;18.116;2023-06-22T09:44:31;8.90;;;3.80;;
75059;SDS011;63640;59.264;18.116;2023-06-22T09:46:57;8.20;;;3.47;;
75059;SDS011;63640;59.264;18.116;2023-06-22T09:49:22;7.00;;;3.65;;
75059;SDS011;63640;59.264;18.116;2023-06-22T09:51:48;8.32;;;3.20;;
75059;SDS011;63640;59.264;18.116;2023-06-22T09:54:14;7.15;;;3.70;;
75059;SDS011;63640;59.264;18.116;2023-06-22T09:56:40;9.48;;;3.17;;
75059;SDS011;63640;59.264;18.116;2023-06-22T09:59:05;7.35;;;3.67;;
75059;SDS011;63640;59.264;18.116;2023-06-22T10:01:31;10.52;;;3.83;;
75059;SDS011;63640;59.264;18.116;2023-06-22T10:03:56;6.75;;;3.53;;
75059;SDS011;63640;59.264;18.116;2023-06-22T10:06:22;9.20;;;3.13;;
75059;SDS011;63640;59.264;18.116;2023-06-22T10:08:50;7.18;;;3.00;;
75059;SDS011;63640;59.264;18.116;2023-06-22T10:11:16;7.97;;;4.03;;
75059;SDS011;63640;59.264;18.116;2023-06-22T10:13:41;6.38;;;2.88;;
75059;SDS011;63640;59.264;18.116;2023-06-22T10:16:07;6.30;;;3.75;;
75059;SDS011;63640;59.264;18.116;2023-06-22T10:18:32;7.53;;;3.22;;
75059;SDS011;63640;59.264;18.116;2023-06-22T10:20:58;11.55;;;2.70;;
75059;SDS011;63640;59.264;18.116;2023-06-22T10:23:23;6.07;;;3.00;;
75059;SDS011;63640;59.264;18.116;2023-06-22T10:25:49;6.25;;;2.80;;
75059;SDS011;63640;59.264;18.116;2023-06-22T10:28:14;7.35;;;3.20;;
75059;SDS011;63640;59.264;18.116;2023-06-22T10:30:40;6.70;;;2.80;;
75059;SDS011;63640;59.264;18.116;2023-06-22T10:33:07;6.03;;;3.03;;
75059;SDS011;63640;59.264;18.116;2023-06-22T10:35:33;8.90;;;2.80;;
75059;SDS011;63640;59.264;18.116;2023-06-22T10:37:59;6.75;;;2.83;;
75059;SDS011;63640;59.264;18.116;2023-06-22T10:40:24;10.00;;;2.65;;
75059;SDS011;63640;59.264;18.116;2023-06-22T10:42:50;6.57;;;2.47;;
75059;SDS011;63640;59.264;18.116;2023-06-22T10:45:15;7.75;;;2.92;;
75059;SDS011;63640;59.264;18.116;2023-06-22T10:47:41;5.95;;;2.53;;
75059;SDS011;63640;59.264;18.116;2023-06-22T10:50:07;9.90;;;3.13;;
75059;SDS011;63640;59.264;18.116;2023-06-22T10:52:33;7.03;;;2.70;;
75059;SDS011;63640;59.264;18.116;2023-06-22T10:54:58;5.47;;;2.60;;
75059;SDS011;63640;59.264;18.116;2023-06-22T10:57:24;6.50;;;2.60;;
75059;SDS011;63640;59.264;18.116;2023-06-22T10:59:50;7.00;;;3.53;;
75059;SDS011;63640;59.264;18.116;2023-06-22T11:02:15;6.10;;;2.40;;
75059;SDS011;63640;59.264;18.116;2023-06-22T11:04:41;7.82;;;3.22;;
75059;SDS011;63640;59.264;18.116;2023-06-22T11:07:06;6.82;;;2.92;;
75059;SDS011;63640;59.264;18.116;2023-06-22T11:09:31;7.07;;;2.67;;
75059;SDS011;63640;59.264;18.116;2023-06-22T11:11:57;6.32;;;2.45;;
75059;SDS011;63640;59.264;18.116;2023-06-22T11:14:24;6.95;;;2.90;;
75059;SDS011;63640;59.264;18.116;2023-06-22T11:16:50;7.35;;;2.55;;
75059;SDS011;63640;59.264;18.116;2023-06-22T11:19:15;7.18;;;2.65;;
75059;SDS011;63640;59.264;18.116;2023-06-22T11:21:41;6.88;;;2.65;;
75059;SDS011;63640;59.264;18.116;2023-06-22T11:24:06;5.88;;;2.00;;
75059;SDS011;63640;59.264;18.116;2023-06-22T11:26:32;4.88;;;2.08;;
75059;SDS011;63640;59.264;18.116;2023-06-22T11:28:58;5.35;;;1.75;;
75059;SDS011;63640;59.264;18.116;2023-06-22T11:31:24;4.55;;;1.95;;
75059;SDS011;63640;59.264;18.116;2023-06-22T11:33:49;5.93;;;2.35;;
75059;SDS011;63640;59.264;18.116;2023-06-22T11:36:15;6.10;;;2.10;;
75059;SDS011;63640;59.264;18.116;2023-06-22T11:38:41;8.23;;;2.80;;
75059;SDS011;63640;59.264;18.116;2023-06-22T11:41:07;8.10;;;2.83;;
75059;SDS011;63640;59.264;18.116;2023-06-22T11:43:34;4.65;;;2.05;;
75059;SDS011;63640;59.264;18.116;2023-06-22T11:46:00;5.00;;;2.25;;
75059;SDS011;63640;59.264;18.116;2023-06-22T11:48:26;6.03;;;2.47;;
75059;SDS011;63640;59.264;18.116;2023-06-22T11:50:52;7.78;;;2.40;;
75059;SDS011;63640;59.264;18.116;2023-06-22T11:53:19;5.25;;;2.45;;
75059;SDS011;63640;59.264;18.116;2023-06-22T11:55:46;6.00;;;2.50;;
75059;SDS011;63640;59.264;18.116;2023-06-22T11:58:12;5.65;;;2.22;;
75059;SDS011;63640;59.264;18.116;2023-06-22T12:00:37;5.38;;;1.98;;
75059;SDS011;63640;59.264;18.116;2023-06-22T12:03:03;6.15;;;2.13;;
75059;SDS011;63640;59.264;18.116;2023-06-22T12:05:29;5.93;;;2.20;;
75059;SDS011;63640;59.264;18.116;2023-06-22T12:07:54;4.95;;;2.00;;
75059;SDS011;63640;59.264;18.116;2023-06-22T12:10:20;5.57;;;2.60;;
75059;SDS011;63640;59.264;18.116;2023-06-22T12:12:47;6.63;;;2.30;;
75059;SDS011;63640;59.264;18.116;2023-06-22T12:15:12;8.15;;;2.50;;
75059;SDS011;63640;59.264;18.116;2023-06-22T12:17:38;5.50;;;2.20;;
75059;SDS011;63640;59.264;18.116;2023-06-22T12:20:04;5.80;;;2.38;;
75059;SDS011;63640;59.264;18.116;2023-06-22T12:22:31;5.18;;;2.38;;
75059;SDS011;63640;59.264;18.116;2023-06-22T12:24:57;5.55;;;1.95;;
75059;SDS011;63640;59.264;18.116;2023-06-22T12:27:23;5.15;;;2.15;;
75059;SDS011;63640;59.264;18.116;2023-06-22T12:29:48;5.40;;;1.90;;
75059;SDS011;63640;59.264;18.116;2023-06-22T12:32:14;5.45;;;1.75;;
75059;SDS011;63640;59.264;18.116;2023-06-22T12:34:41;6.07;;;2.20;;
75059;SDS011;63640;59.264;18.116;2023-06-22T12:37:07;6.00;;;2.30;;
75059;SDS011;63640;59.264;18.116;2023-06-22T12:39:32;6.00;;;2.22;;
75059;SDS011;63640;59.264;18.116;2023-06-22T12:41:58;5.28;;;2.20;;
75059;SDS011;63640;59.264;18.116;2023-06-22T12:44:23;5.20;;;2.30;;
75059;SDS011;63640;59.264;18.116;2023-06-22T12:46:49;6.15;;;2.45;;
75059;SDS011;63640;59.264;18.116;2023-06-22T12:49:14;5.55;;;1.98;;
75059;SDS011;63640;59.264;18.116;2023-06-22T12:51:40;6.47;;;2.15;;
75059;SDS011;63640;59.264;18.116;2023-06-22T12:54:07;6.72;;;2.28;;
75059;SDS011;63640;59.264;18.116;2023-06-22T12:56:33;7.05;;;2.45;;
75059;SDS011;63640;59.264;18.116;2023-06-22T12:58:58;6.93;;;2.40;;
75059;SDS011;63640;59.264;18.116;2023-06-22T13:01:27;5.32;;;2.47;;
75059;SDS011;63640;59.264;18.116;2023-06-22T13:03:53;6.10;;;2.25;;
75059;SDS011;63640;59.264;18.116;2023-06-22T13:06:18;7.32;;;2.25;;
75059;SDS011;63640;59.264;18.116;2023-06-22T13:08:44;9.60;;;2.90;;
75059;SDS011;63640;59.264;18.116;2023-06-22T13:11:09;5.03;;;2.30;;
75059;SDS011;63640;59.264;18.116;2023-06-22T13:13:35;7.80;;;2.55;;
75059;SDS011;63640;59.264;18.116;2023-06-22T13:16:00;6.93;;;2.42;;
75059;SDS011;63640;59.264;18.116;2023-06-22T13:18:26;6.90;;;2.70;;
75059;SDS011;63640;59.264;18.116;2023-06-22T13:20:51;6.47;;;2.70;;
75059;SDS011;63640;59.264;18.116;2023-06-22T13:23:19;7.18;;;2.80;;
75059;SDS011;63640;59.264;18.116;2023-06-22T13:25:46;5.10;;;2.38;;
75059;SDS011;63640;59.264;18.116;2023-06-22T13:28:11;10.38;;;2.33;;
75059;SDS011;63640;59.264;18.116;2023-06-22T13:30:38;5.80;;;2.50;;
75059;SDS011;63640;59.264;18.116;2023-06-22T13:33:05;5.32;;;2.40;;
75059;SDS011;63640;59.264;18.116;2023-06-22T13:35:30;6.35;;;2.70;;
75059;SDS011;63640;59.264;18.116;2023-06-22T13:37:56;6.03;;;2.40;;
75059;SDS011;63640;59.264;18.116;2023-06-22T13:40:21;12.15;;;2.80;;
75059;SDS011;63640;59.264;18.116;2023-06-22T13:42:47;5.72;;;2.58;;
75059;SDS011;63640;59.264;18.116;2023-06-22T13:45:12;5.07;;;2.40;;
75059;SDS011;63640;59.264;18.116;2023-06-22T13:47:38;5.88;;;2.47;;
75059;SDS011;63640;59.264;18.116;2023-06-22T13:50:04;6.18;;;2.22;;
75059;SDS011;63640;59.264;18.116;2023-06-22T13:52:29;5.97;;;2.47;;
75059;SDS011;63640;59.264;18.116;2023-06-22T13:54:55;6.95;;;2.55;;
75059;SDS011;63640;59.264;18.116;2023-06-22T13:57:20;6.25;;;2.58;;
75059;SDS011;63640;59.264;18.116;2023-06-22T13:59:46;8.40;;;2.20;;
75059;SDS011;63640;59.264;18.116;2023-06-22T14:02:12;6.63;;;1.95;;
75059;SDS011;63640;59.264;18.116;2023-06-22T14:04:37;7.25;;;2.67;;
75059;SDS011;63640;59.264;18.116;2023-06-22T14:07:03;5.88;;;2.40;;
75059;SDS011;63640;59.264;18.116;2023-06-22T14:09:28;6.15;;;2.58;;
75059;SDS011;63640;59.264;18.116;2023-06-22T14:11:54;7.10;;;2.90;;
75059;SDS011;63640;59.264;18.116;2023-06-22T14:14:21;7.07;;;2.80;;
75059;SDS011;63640;59.264;18.116;2023-06-22T14:16:46;5.80;;;2.72;;
75059;SDS011;63640;59.264;18.116;2023-06-22T14:19:14;5.43;;;2.40;;
75059;SDS011;63640;59.264;18.116;2023-06-22T14:21:39;6.10;;;2.55;;
75059;SDS011;63640;59.264;18.116;2023-06-22T14:24:05;6.53;;;2.70;;
75059;SDS011;63640;59.264;18.116;2023-06-22T14:26:30;6.63;;;2.60;;